Terminal Aerodrome Forecast
Issued by NWS

Home | Current Version | Previous Version | Graphics & Text | Print | Product List | Glossary On
Versions: 1 2 3 4 5 6 7 8 9 10 11 12 13 14
376
FTUS43 KICT 212320
TAFSLN
TAF
KSLN 212320Z 2200/2224 26008KT P6SM SCT250
     FM220200 19005KT P6SM SCT200
     FM220800 19006KT P6SM VCSH SCT050 BKN100
     FM221200 23006KT P6SM -SHRA VCTS OVC070CB
     FM221800 21008KT P6SM BKN045
     FM222200 21009KT P6SM SCT070=

USA.gov is the U.S. government's official web portal to all federal, state and local government web resources and services.